Latest Weather Observations for Latrobe Valley

IDV60801

Issued at 8:52 am EDT Friday 22 January 2021 (issued every 10 minutes, with the page automatically refreshed every 10 minutes)

About weather observations | Map of weather stations | Latest weather observations for VIC | Other Formats
Station Details ID: 085280 Name: LATROBE VALLEY AIRPORT Lat: -38.21 Lon: 146.47 Height: 55.7 m
Data from the previous 72 hours. | See also: Recent months at Latrobe Valley
Date/Time
EDT
Temp
°C
App
Temp
°C
Dew
Point
°C
Rel
Hum
%
Delta-T
°C
Wind Press
QNH
hPa
Press
MSL
hPa
Rain since
9am
mm
Dir  Spd
km/h
Gust
km/h
Spd
kts
Gust
kts
22/08:30am 17.5 15.8 11.3 67 3.4 WSW 11 15 6 8 1008.4 1008.3 0.0
22/08:00am 15.4 14.4 11.0 75 2.4 W 7 13 4 7 1008.0 1007.9 0.0
22/07:30am 14.2 12.7 10.6 79 1.9 SW 9 9 5 5 1007.8 1007.7 0.0
22/07:00am 13.8 12.5 10.0 78 2.0 SSW 7 9 4 5 1007.3 1007.1 0.0
22/06:30am 12.5 10.6 9.1 80 1.7 SW 9 11 5 6 1007.2 1007.0 0.0
22/06:00am 14.7 13.5 10.3 75 2.3 SSW 7 9 4 5 1006.9 1006.7 0.0
22/05:30am 13.4 11.7 9.8 79 1.9 SSW 9 11 5 6 1006.9 1006.7 0.0
22/05:00am 12.7 11.1 10.2 85 1.3 SW 9 11 5 6 1006.7 1006.5 0.0
22/04:30am 12.8 11.2 10.2 84 1.3 SW 9 13 5 7 1006.8 1006.6 0.0
22/04:00am 14.4 12.9 10.4 77 2.1 SSW 9 9 5 5 1006.7 1006.5 0.0
22/03:30am 13.1 11.9 9.4 78 1.9 WSW 6 7 3 4 1006.8 1006.6 0.0
22/03:00am 14.2 14.2 9.8 75 2.3 CALM 0 0 0 0 1006.8 1006.6 0.0
22/02:30am 13.1 11.7 9.7 80 1.7 W 7 9 4 5 1007.2 1007.0 0.0
22/02:00am 13.5 12.8 10.1 80 1.8 WNW 4 7 2 4 1007.5 1007.3 0.0
22/01:30am 15.6 15.5 9.5 67 3.2 CALM 0 0 0 0 1007.6 1007.5 0.0
22/01:00am 15.9 15.9 9.8 67 3.2 CALM 0 0 0 0 1008.1 1008.0 0.0
22/12:30am 16.3 16.1 9.0 62 3.8 CALM 0 0 0 0 1008.3 1008.2 0.0
22/12:00am 17.8 16.5 9.2 57 4.5 E 6 7 3 4 1008.7 1008.6 0.0
 
Date/Time
EDT
Temp
°C
App
Temp
°C
Dew
Point
°C
Rel
Hum
%
Delta-T
°C
Wind Press
QNH
hPa
Press
MSL
hPa
Rain since
9am
mm
Dir  Spd
km/h
Gust
km/h
Spd
kts
Gust
kts
21/11:30pm 18.3 17.3 10.2 59 4.3 NE 6 9 3 5 1009.3 1009.2 0.0
21/11:00pm 19.2 17.8 9.4 53 5.2 ENE 7 11 4 6 1009.6 1009.5 0.0
21/10:30pm 19.6 17.9 9.8 53 5.2 E 9 11 5 6 1009.6 1009.5 0.0
21/10:00pm 20.6 18.7 10.4 52 5.6 ENE 11 19 6 10 1010.0 1009.9 0.0
21/09:30pm 21.3 18.6 10.5 50 5.9 NE 15 20 8 11 1009.9 1009.8 0.0
21/09:00pm 22.0 19.9 11.1 50 6.1 ENE 13 20 7 11 1010.2 1010.1 0.0
21/08:30pm 22.6 19.8 11.4 49 6.3 NE 17 22 9 12 1009.8 1009.7 0.0
21/08:00pm 24.0 20.1 12.0 47 6.8 NE 24 33 13 18 1009.5 1009.4 0.0
21/07:30pm 26.0 21.9 11.4 40 8.3 NE 24 32 13 17 1009.1 1009.0 0.0
21/07:00pm 27.0 23.0 11.9 39 8.7 NE 24 32 13 17 1008.8 1008.7 0.0
21/06:30pm 28.9 25.7 10.1 31 10.6 ENE 17 24 9 13 1008.8 1008.7 0.0
21/06:00pm 31.6 28.3 6.6 21 13.5 SW 13 22 7 12 1008.5 1008.4 0.0
21/05:30pm 31.9 28.0 6.9 21 13.6 SSW 17 24 9 13 1008.8 1008.7 0.0
21/05:00pm 31.8 27.5 5.3 19 14.1 SW 17 32 9 17 1009.1 1009.0 0.0
21/04:30pm 31.6 27.0 6.6 21 13.5 SW 20 32 11 17 1009.5 1009.4 0.0
21/04:00pm 32.3 26.8 4.2 17 14.7 WSW 22 35 12 19 1010.0 1009.9 0.0
21/03:30pm 31.9 26.7 5.4 19 14.1 WSW 22 35 12 19 1010.2 1010.1 0.0
21/03:00pm 31.6 28.3 6.6 21 13.5 SW 13 28 7 15 1010.8 1010.7 0.0
21/02:30pm 30.5 28.9 8.8 26 12.1 NNW 7 13 4 7 1011.3 1011.2 0.0
21/02:00pm 28.2 26.7 9.0 30 10.6 W 7 13 4 7 1011.9 1011.8 0.0
21/01:30pm 27.2 25.6 8.6 31 10.1 S 7 15 4 8 1012.6 1012.5 0.0
21/01:00pm 26.9 25.5 9.7 34 9.5 WSW 7 13 4 7 1013.3 1013.1 0.0
21/12:30pm 25.6 23.4 9.4 36 8.9 NNE 11 17 6 9 1013.7 1013.5 0.0
21/12:00pm 24.9 22.6 10.4 40 8.1 NNE 13 20 7 11 1014.2 1014.0 0.0
21/11:30am 23.4 21.6 10.8 45 7.0 NE 11 19 6 10 1014.6 1014.4 0.0
21/11:00am 22.1 19.6 10.9 49 6.2 NE 15 20 8 11 1015.3 1015.1 0.0
21/10:30am 20.6 18.5 11.0 54 5.3 ENE 13 20 7 11 1015.7 1015.5 0.0
21/10:00am 19.7 17.8 11.7 60 4.4 ENE 13 22 7 12 1016.1 1015.9 0.0
21/09:30am 18.3 16.3 12.7 70 3.1 NE 15 20 8 11 1016.6 1016.4 0.0
21/09:00am 17.2 15.2 11.5 69 3.1 NE 13 20 7 11 1016.9 1016.7 0.0
21/08:30am 16.2 15.0 11.6 74 2.5 E 9 13 5 7 1017.2 1017.0 0.0
21/08:00am 13.1 12.4 11.5 90 0.8 NNE 6 7 3 4 1017.2 1017.0 0.0
21/07:30am 10.6 10.6 9.7 94 0.5 CALM 0 0 0 0 1017.3 1017.1 0.0
21/07:00am 7.9 7.2 6.8 93 0.5 CALM 0 0 0 0 1017.2 1017.0 0.0
21/06:31am 8.4 7.4 7.5 94 0.4 ENE 2 6 1 3 1017.3 1017.1 0.0
21/06:30am 8.7 7.8 7.8 94 0.4 ENE 2 6 1 3 1017.3 1017.1 0.0
21/06:07am 8.2 6.4 7.1 93 0.5 NNE 6 7 3 4 1017.1 1016.9 0.0
21/06:00am 8.3 7.3 7.2 93 0.5 NE 2 7 1 4 1017.1 1016.9 0.0
21/05:30am 8.8 8.3 7.7 93 0.5 CALM 0 0 0 0 1017.1 1016.9 0.0
21/05:00am 9.1 7.5 8.2 94 0.4 NE 6 7 3 4 1017.0 1016.8 0.0
21/04:30am 8.2 6.2 7.0 92 0.6 N 7 7 4 4 1017.0 1016.8 0.0
21/04:00am 8.9 7.6 7.5 91 0.7 E 4 7 2 4 1017.0 1016.8 0.0
21/03:30am 9.2 6.8 7.2 87 0.9 NNE 9 11 5 6 1017.2 1017.0 0.0
21/03:00am 12.2 10.8 9.6 84 1.3 E 7 13 4 7 1017.6 1017.4 0.0
21/02:30am 12.3 11.1 9.7 84 1.3 ESE 6 9 3 5 1018.1 1017.9 0.0
21/02:00am 11.5 10.1 8.9 84 1.3 E 6 9 3 5 1018.3 1018.1 0.0
21/01:30am 12.0 10.7 9.2 83 1.4 E 6 7 3 4 1018.7 1018.5 0.0
21/01:00am 12.1 10.7 8.8 80 1.6 ENE 6 9 3 5 1018.9 1018.7 0.0
21/12:30am 13.6 11.8 9.6 77 2.1 ENE 9 13 5 7 1019.1 1018.9 0.0
21/12:00am 14.3 12.2 9.7 74 2.4 ENE 11 17 6 9 1019.3 1019.1 0.0
 
Date/Time
EDT
Temp
°C
App
Temp
°C
Dew
Point
°C
Rel
Hum
%
Delta-T
°C
Wind Press
QNH
hPa
Press
MSL
hPa
Rain since
9am
mm
Dir  Spd
km/h
Gust
km/h
Spd
kts
Gust
kts
20/11:30pm 14.4 12.5 9.2 71 2.7 E 9 13 5 7 1019.8 1019.6 0.0
20/11:00pm 14.5 12.6 8.9 69 2.8 E 9 15 5 8 1020.2 1020.0 0.0
20/10:30pm 14.7 12.6 8.2 65 3.3 E 9 15 5 8 1020.5 1020.3 0.0
20/10:00pm 15.7 13.5 8.0 60 3.9 E 9 15 5 8 1020.5 1020.3 0.0
20/09:30pm 16.6 13.2 7.5 55 4.6 ENE 15 20 8 11 1020.3 1020.1 0.0
20/09:00pm 17.3 14.2 7.1 51 5.1 ENE 13 20 7 11 1020.1 1019.9 0.0
20/08:30pm 19.0 14.9 6.2 43 6.4 ENE 17 24 9 13 1019.6 1019.4 0.0
20/08:00pm 20.8 16.9 5.2 36 7.7 E 15 28 8 15 1019.3 1019.1 0.0
20/07:30pm 22.4 18.5 5.4 33 8.5 E 15 24 8 13 1019.0 1018.8 0.0
20/07:00pm 23.5 18.7 4.5 29 9.4 ENE 19 28 10 15 1018.8 1018.6 0.0
20/06:30pm 24.6 19.9 3.3 25 10.4 ENE 17 24 9 13 1018.5 1018.3 0.0
20/06:00pm 25.0 20.5 4.2 26 10.3 ENE 17 28 9 15 1018.4 1018.2 0.0
20/05:30pm 26.1 22.3 4.0 24 11.1 ENE 13 20 7 11 1018.4 1018.2 0.0
20/05:00pm 26.7 22.1 3.9 23 11.4 NE 17 24 9 13 1018.7 1018.5 0.0
20/04:30pm 26.0 22.2 3.9 24 11.0 ENE 13 19 7 10 1019.1 1018.9 0.0
20/04:00pm 26.0 22.7 4.5 25 10.8 ENE 11 17 6 9 1019.5 1019.3 0.0
20/03:30pm 25.0 20.8 3.6 25 10.5 ENE 15 24 8 13 1020.0 1019.8 0.0
20/03:00pm 24.7 19.8 2.2 23 10.8 NE 17 26 9 14 1020.3 1020.1 0.0
20/02:30pm 25.1 20.8 3.1 24 10.8 ENE 15 24 8 13 1020.7 1020.5 0.0
20/02:00pm 23.6 19.4 1.9 24 10.2 ENE 13 22 7 12 1021.3 1021.1 0.0
20/01:30pm 22.8 17.6 0.0 22 10.3 E 17 24 9 13 1021.7 1021.5 0.0
20/01:00pm 22.4 17.7 3.0 28 9.2 ENE 17 24 9 13 1022.1 1021.9 0.0
20/12:30pm 22.0 17.6 4.6 32 8.6 NE 17 28 9 15 1022.7 1022.5 0.0
20/12:00pm 21.2 17.1 4.3 33 8.2 ENE 15 22 8 12 1023.2 1023.1 0.0
20/11:30am 19.7 15.3 5.0 38 7.2 ENE 17 24 9 13 1023.6 1023.5 0.0
20/11:00am 18.9 14.8 6.1 43 6.3 NE 17 24 9 13 1023.9 1023.8 0.0
20/10:30am 17.5 13.6 5.4 45 5.9 ENE 15 22 8 12 1024.1 1024.0 0.0
20/10:00am 16.6 12.5 6.4 51 5.0 ENE 17 22 9 12 1024.3 1024.2 0.0
20/09:30am 15.6 12.0 6.9 56 4.3 ENE 15 20 8 11 1024.5 1024.4 0.0
20/09:00am 14.0 10.8 6.8 62 3.5 ENE 13 17 7 9 1024.7 1024.6 0.0
20/08:30am 12.4 10.0 6.9 69 2.6 ENE 9 13 5 7 1024.8 1024.7 0.0
20/08:00am 9.7 9.1 7.3 85 1.1 CALM 0 0 0 0 1024.8 1024.7 0.0
20/07:30am 7.1 6.2 5.9 92 0.5 CALM 0 0 0 0 1024.8 1024.7 0.0
20/07:00am 5.1 3.8 3.9 92 0.5 CALM 0 0 0 0 1024.6 1024.5 0.0
20/06:30am 4.2 2.6 2.7 90 0.6 CALM 0 0 0 0 1024.5 1024.4 0.0
20/06:00am 5.0 3.6 3.7 91 0.5 CALM 0 0 0 0 1024.4 1024.3 0.0
20/05:30am 5.4 4.1 4.2 92 0.5 CALM 0 0 0 0 1024.1 1024.0 0.0
20/05:00am 5.1 2.6 3.8 91 0.5 SW 6 9 3 5 1023.9 1023.8 0.0
20/04:30am 5.7 4.4 4.2 90 0.6 CALM 0 0 0 0 1023.7 1023.6 0.0
20/04:00am 5.6 4.3 4.2 91 0.6 CALM 0 0 0 0 1023.7 1023.6 0.0
20/03:30am 5.4 4.0 3.7 89 0.7 CALM 0 0 0 0 1023.9 1023.8 0.0
20/03:00am 6.0 4.7 4.3 89 0.7 CALM 0 0 0 0 1023.9 1023.8 0.0
20/02:30am 6.2 5.0 4.4 88 0.8 CALM 0 0 0 0 1024.0 1023.9 0.0
20/02:00am 6.8 5.6 4.8 87 0.9 CALM 0 0 0 0 1024.1 1024.0 0.0
20/01:30am 7.2 6.0 4.7 84 1.1 CALM 0 0 0 0 1024.2 1024.1 0.0
20/01:00am 8.3 6.1 5.2 81 1.4 SSE 6 7 3 4 1024.5 1024.4 0.0
20/12:30am 8.9 7.9 5.6 80 1.5 CALM 0 0 0 0 1024.4 1024.3 0.0
20/12:00am 9.0 8.0 5.7 80 1.5 CALM 0 6 0 3 1024.5 1024.4 0.0
 
Date/Time
EDT
Temp
°C
App
Temp
°C
Dew
Point
°C
Rel
Hum
%
Delta-T
°C
Wind Press
QNH
hPa
Press
MSL
hPa
Rain since
9am
mm
Dir  Spd
km/h
Gust
km/h
Spd
kts
Gust
kts
19/11:30pm 10.3 9.0 6.1 75 2.0 N 2 7 1 4 1024.7 1024.6 0.0
19/11:00pm 9.8 7.7 6.0 77 1.7 NE 6 9 3 5 1024.6 1024.5 0.0
19/10:30pm 11.3 10.0 6.0 70 2.5 SSW 2 7 1 4 1024.6 1024.5 0.0
19/10:00pm 11.8 9.5 5.9 67 2.7 SW 7 9 4 5 1024.3 1024.2 0.0
19/09:30pm 13.4 10.0 5.8 60 3.6 SSW 13 19 7 10 1024.1 1024.0 0.0
19/09:00pm 13.7 10.2 5.6 58 3.8 SW 13 15 7 8 1023.9 1023.8 0.0
19/08:30pm 14.8 11.0 5.6 54 4.4 SW 15 20 8 11 1023.6 1023.5 0.0
19/08:00pm 15.8 10.6 5.4 50 4.9 SW 22 28 12 15 1023.5 1023.4 0.0
19/07:30pm 16.7 11.8 5.0 46 5.6 SW 20 26 11 14 1023.1 1023.0 0.0
19/07:00pm 17.3 12.4 4.9 44 5.9 SW 20 28 11 15 1022.9 1022.7 0.0
19/06:30pm 17.7 11.9 4.6 42 6.2 SW 24 30 13 16 1022.7 1022.5 0.0
19/06:00pm 18.1 12.7 4.7 41 6.4 SW 22 33 12 18 1022.6 1022.4 0.0
19/05:30pm 18.7 13.1 5.2 41 6.6 SW 24 41 13 22 1022.4 1022.2 0.0
19/05:00pm 18.9 14.1 5.4 41 6.6 SW 20 30 11 16 1022.5 1022.3 0.0
19/04:30pm 18.8 13.2 5.3 41 6.6 SSW 24 37 13 20 1022.6 1022.4 0.0
19/04:00pm 18.9 13.2 5.0 40 6.7 SW 24 35 13 19 1022.5 1022.3 0.0
19/03:30pm 19.4 14.0 6.5 43 6.5 SW 24 35 13 19 1022.6 1022.4 0.0
19/03:00pm 20.1 15.1 6.5 41 6.8 SSW 22 32 12 17 1022.6 1022.4 0.0
19/02:30pm 19.3 13.8 5.7 41 6.7 SW 24 35 13 19 1022.7 1022.5 0.0
19/02:00pm 19.2 13.4 4.2 37 7.1 WSW 24 35 13 19 1022.8 1022.6 0.0
19/01:30pm 19.0 13.6 6.2 43 6.4 SSW 24 37 13 20 1022.8 1022.6 0.0
19/01:00pm 18.6 13.1 6.1 44 6.2 WSW 24 32 13 17 1023.1 1023.0 0.0
19/12:30pm 18.8 13.4 6.3 44 6.2 SW 24 35 13 19 1023.2 1023.1 0.0
19/12:00pm 17.8 12.7 6.0 46 5.8 SW 22 33 12 18 1023.4 1023.3 0.0
19/11:30am 17.3 11.6 4.9 44 5.9 SW 24 35 13 19 1023.4 1023.3 0.0
19/11:00am 16.7 10.6 4.7 45 5.7 SW 26 35 14 19 1023.4 1023.3 0.0
19/10:30am 16.8 10.2 6.0 49 5.3 SW 30 39 16 21 1023.2 1023.1 0.0
19/10:00am 16.8 11.3 5.7 48 5.4 SSW 24 35 13 19 1023.0 1022.9 0.0
19/09:30am 15.7 10.3 6.2 53 4.6 SW 24 35 13 19 1023.0 1022.9 0.0
19/09:15am 15.8 9.4 5.4 50 5.0 WSW 28 46 15 25 1022.8 1022.6 0.0
19/09:00am 15.0 8.7 5.5 53 4.5 SW 28 37 15 20 1022.7 1022.5 0.0

Other formats

Comma delimited format used in spreadsheet applications
http://www.bom.gov.au/fwo/IDV60801/IDV60801.94891.axf

JavaScript Object Notation format (JSON) in row-major order
http://www.bom.gov.au/fwo/IDV60801/IDV60801.94891.json

Data quality

Most of these data are generated automatically and are frequently updated. Quality checks on data are not normally performed. It is possible for incorrect values to appear. Refer to information at About Latest Weather Observations and please check the disclaimer before using these data.